sensor_id;sensor_type;location;lat;lon;timestamp;P1;durP1;ratioP1;P2;durP2;ratioP2
54705;SDS011;40603;48.774;8.916;2022-07-04T00:02:05;8.68;;;7.90;;
54705;SDS011;40603;48.774;8.916;2022-07-04T00:04:30;9.10;;;8.63;;
54705;SDS011;40603;48.774;8.916;2022-07-04T00:06:55;7.68;;;6.88;;
54705;SDS011;40603;48.774;8.916;2022-07-04T00:09:20;7.35;;;6.25;;
54705;SDS011;40603;48.774;8.916;2022-07-04T00:11:46;8.32;;;7.72;;
54705;SDS011;40603;48.774;8.916;2022-07-04T00:14:11;15.57;;;14.48;;
54705;SDS011;40603;48.774;8.916;2022-07-04T00:16:36;10.35;;;9.77;;
54705;SDS011;40603;48.774;8.916;2022-07-04T00:19:02;10.07;;;7.00;;
54705;SDS011;40603;48.774;8.916;2022-07-04T00:21:27;6.75;;;6.32;;
54705;SDS011;40603;48.774;8.916;2022-07-04T00:23:52;7.65;;;6.53;;
54705;SDS011;40603;48.774;8.916;2022-07-04T00:26:18;5.75;;;5.43;;
54705;SDS011;40603;48.774;8.916;2022-07-04T00:28:43;10.63;;;6.78;;
54705;SDS011;40603;48.774;8.916;2022-07-04T00:31:08;5.40;;;5.05;;
54705;SDS011;40603;48.774;8.916;2022-07-04T00:33:35;5.00;;;4.63;;
54705;SDS011;40603;48.774;8.916;2022-07-04T00:36:00;9.18;;;7.00;;
54705;SDS011;40603;48.774;8.916;2022-07-04T00:38:25;5.53;;;4.97;;
54705;SDS011;40603;48.774;8.916;2022-07-04T00:40:51;5.00;;;4.47;;
54705;SDS011;40603;48.774;8.916;2022-07-04T00:43:23;9.15;;;6.55;;
54705;SDS011;40603;48.774;8.916;2022-07-04T00:45:49;5.18;;;4.68;;
54705;SDS011;40603;48.774;8.916;2022-07-04T00:48:14;11.23;;;10.48;;
54705;SDS011;40603;48.774;8.916;2022-07-04T00:50:40;6.30;;;5.25;;
54705;SDS011;40603;48.774;8.916;2022-07-04T00:53:07;7.95;;;6.72;;
54705;SDS011;40603;48.774;8.916;2022-07-04T00:55:32;5.05;;;4.68;;
54705;SDS011;40603;48.774;8.916;2022-07-04T00:57:58;4.93;;;3.67;;
54705;SDS011;40603;48.774;8.916;2022-07-04T01:00:23;3.85;;;3.55;;
54705;SDS011;40603;48.774;8.916;2022-07-04T01:02:49;4.85;;;3.88;;
54705;SDS011;40603;48.774;8.916;2022-07-04T01:05:14;3.70;;;3.40;;
54705;SDS011;40603;48.774;8.916;2022-07-04T01:07:40;3.78;;;3.35;;
54705;SDS011;40603;48.774;8.916;2022-07-04T01:10:05;4.90;;;3.97;;
54705;SDS011;40603;48.774;8.916;2022-07-04T01:12:31;5.80;;;3.28;;
54705;SDS011;40603;48.774;8.916;2022-07-04T01:14:56;5.82;;;3.00;;
54705;SDS011;40603;48.774;8.916;2022-07-04T01:17:22;4.07;;;3.33;;
54705;SDS011;40603;48.774;8.916;2022-07-04T01:19:47;3.67;;;2.88;;
54705;SDS011;40603;48.774;8.916;2022-07-04T01:22:12;5.30;;;3.00;;
54705;SDS011;40603;48.774;8.916;2022-07-04T01:24:38;3.70;;;2.95;;
54705;SDS011;40603;48.774;8.916;2022-07-04T01:27:03;4.03;;;3.47;;
54705;SDS011;40603;48.774;8.916;2022-07-04T01:29:30;6.70;;;3.03;;
54705;SDS011;40603;48.774;8.916;2022-07-04T01:31:56;3.40;;;3.10;;
54705;SDS011;40603;48.774;8.916;2022-07-04T01:34:21;4.32;;;3.88;;
54705;SDS011;40603;48.774;8.916;2022-07-04T01:36:47;5.55;;;3.28;;
54705;SDS011;40603;48.774;8.916;2022-07-04T01:39:12;4.63;;;4.18;;
54705;SDS011;40603;48.774;8.916;2022-07-04T01:41:37;6.95;;;4.63;;
54705;SDS011;40603;48.774;8.916;2022-07-04T01:44:03;4.88;;;3.88;;
54705;SDS011;40603;48.774;8.916;2022-07-04T01:46:28;6.28;;;4.38;;
54705;SDS011;40603;48.774;8.916;2022-07-04T01:48:53;4.90;;;4.35;;
54705;SDS011;40603;48.774;8.916;2022-07-04T01:51:18;5.15;;;4.03;;
54705;SDS011;40603;48.774;8.916;2022-07-04T01:53:44;4.15;;;3.72;;
54705;SDS011;40603;48.774;8.916;2022-07-04T01:56:09;5.40;;;4.25;;
54705;SDS011;40603;48.774;8.916;2022-07-04T01:58:34;7.18;;;4.20;;
54705;SDS011;40603;48.774;8.916;2022-07-04T02:01:00;4.95;;;4.35;;
54705;SDS011;40603;48.774;8.916;2022-07-04T02:03:45;4.00;;;3.15;;
54705;SDS011;40603;48.774;8.916;2022-07-04T02:06:10;3.80;;;3.28;;
54705;SDS011;40603;48.774;8.916;2022-07-04T02:08:36;4.88;;;4.32;;
54705;SDS011;40603;48.774;8.916;2022-07-04T02:11:20;3.28;;;3.08;;
54705;SDS011;40603;48.774;8.916;2022-07-04T02:13:45;10.93;;;10.07;;
54705;SDS011;40603;48.774;8.916;2022-07-04T02:16:11;6.43;;;5.80;;
54705;SDS011;40603;48.774;8.916;2022-07-04T02:18:37;10.07;;;9.38;;
54705;SDS011;40603;48.774;8.916;2022-07-04T02:21:02;8.60;;;6.43;;
54705;SDS011;40603;48.774;8.916;2022-07-04T02:23:28;8.15;;;7.57;;
54705;SDS011;40603;48.774;8.916;2022-07-04T02:25:54;10.05;;;9.43;;
54705;SDS011;40603;48.774;8.916;2022-07-04T02:28:19;5.88;;;5.28;;
54705;SDS011;40603;48.774;8.916;2022-07-04T02:30:45;6.03;;;5.50;;
54705;SDS011;40603;48.774;8.916;2022-07-04T02:33:10;9.90;;;9.20;;
54705;SDS011;40603;48.774;8.916;2022-07-04T02:35:35;3.10;;;2.90;;
54705;SDS011;40603;48.774;8.916;2022-07-04T02:38:00;6.28;;;3.45;;
54705;SDS011;40603;48.774;8.916;2022-07-04T02:40:26;5.93;;;5.53;;
54705;SDS011;40603;48.774;8.916;2022-07-04T02:42:51;5.18;;;3.60;;
54705;SDS011;40603;48.774;8.916;2022-07-04T02:45:16;5.07;;;3.65;;
54705;SDS011;40603;48.774;8.916;2022-07-04T02:47:42;1.50;;;1.40;;
54705;SDS011;40603;48.774;8.916;2022-07-04T02:50:07;4.63;;;2.72;;
54705;SDS011;40603;48.774;8.916;2022-07-04T02:52:32;3.78;;;1.80;;
54705;SDS011;40603;48.774;8.916;2022-07-04T02:54:58;4.35;;;1.50;;
54705;SDS011;40603;48.774;8.916;2022-07-04T02:57:23;5.43;;;1.80;;
54705;SDS011;40603;48.774;8.916;2022-07-04T02:59:48;7.47;;;2.40;;
54705;SDS011;40603;48.774;8.916;2022-07-04T03:02:14;10.48;;;2.50;;
54705;SDS011;40603;48.774;8.916;2022-07-04T03:04:39;5.18;;;1.33;;
54705;SDS011;40603;48.774;8.916;2022-07-04T03:07:05;5.82;;;1.73;;
54705;SDS011;40603;48.774;8.916;2022-07-04T03:09:31;2.05;;;1.30;;
54705;SDS011;40603;48.774;8.916;2022-07-04T03:11:57;2.80;;;1.30;;
54705;SDS011;40603;48.774;8.916;2022-07-04T03:14:22;1.63;;;1.13;;
54705;SDS011;40603;48.774;8.916;2022-07-04T03:16:47;7.45;;;3.60;;
54705;SDS011;40603;48.774;8.916;2022-07-04T03:19:13;4.18;;;1.77;;
54705;SDS011;40603;48.774;8.916;2022-07-04T03:21:38;8.63;;;2.33;;
54705;SDS011;40603;48.774;8.916;2022-07-04T03:24:03;2.40;;;1.83;;
54705;SDS011;40603;48.774;8.916;2022-07-04T03:26:29;188.45;;;175.05;;
54705;SDS011;40603;48.774;8.916;2022-07-04T03:28:56;7.32;;;4.03;;
54705;SDS011;40603;48.774;8.916;2022-07-04T03:31:22;8.32;;;2.30;;
54705;SDS011;40603;48.774;8.916;2022-07-04T03:33:48;334.08;;;21.92;;
54705;SDS011;40603;48.774;8.916;2022-07-04T03:36:13;59.60;;;48.53;;
54705;SDS011;40603;48.774;8.916;2022-07-04T03:38:39;10.35;;;1.73;;
54705;SDS011;40603;48.774;8.916;2022-07-04T03:41:04;3.22;;;1.40;;
54705;SDS011;40603;48.774;8.916;2022-07-04T03:43:30;4.50;;;1.50;;
54705;SDS011;40603;48.774;8.916;2022-07-04T03:45:55;5.05;;;3.38;;
54705;SDS011;40603;48.774;8.916;2022-07-04T03:48:20;5.50;;;4.10;;
54705;SDS011;40603;48.774;8.916;2022-07-04T03:50:45;6.70;;;5.47;;
54705;SDS011;40603;48.774;8.916;2022-07-04T03:53:11;6.53;;;3.40;;
54705;SDS011;40603;48.774;8.916;2022-07-04T03:55:37;3.92;;;3.08;;
54705;SDS011;40603;48.774;8.916;2022-07-04T03:58:02;6.95;;;5.72;;
54705;SDS011;40603;48.774;8.916;2022-07-04T04:00:29;6.15;;;5.65;;
54705;SDS011;40603;48.774;8.916;2022-07-04T04:02:55;6.50;;;5.82;;
54705;SDS011;40603;48.774;8.916;2022-07-04T04:05:20;6.65;;;5.03;;
54705;SDS011;40603;48.774;8.916;2022-07-04T04:07:51;7.07;;;5.75;;
54705;SDS011;40603;48.774;8.916;2022-07-04T04:10:27;514.60;;;134.50;;
54705;SDS011;40603;48.774;8.916;2022-07-04T04:12:53;12.07;;;7.65;;
54705;SDS011;40603;48.774;8.916;2022-07-04T04:15:19;10.70;;;8.00;;
54705;SDS011;40603;48.774;8.916;2022-07-04T04:17:44;11.20;;;9.98;;
54705;SDS011;40603;48.774;8.916;2022-07-04T04:20:10;8.52;;;7.80;;
54705;SDS011;40603;48.774;8.916;2022-07-04T04:22:35;12.65;;;11.30;;
54705;SDS011;40603;48.774;8.916;2022-07-04T04:25:01;10.95;;;9.93;;
54705;SDS011;40603;48.774;8.916;2022-07-04T04:27:26;10.40;;;9.40;;
54705;SDS011;40603;48.774;8.916;2022-07-04T04:29:51;19.90;;;17.95;;
54705;SDS011;40603;48.774;8.916;2022-07-04T04:32:17;16.10;;;14.73;;
54705;SDS011;40603;48.774;8.916;2022-07-04T04:34:42;15.27;;;13.88;;
54705;SDS011;40603;48.774;8.916;2022-07-04T04:37:07;13.88;;;12.40;;
54705;SDS011;40603;48.774;8.916;2022-07-04T04:39:33;15.55;;;14.18;;
54705;SDS011;40603;48.774;8.916;2022-07-04T04:41:58;14.07;;;12.80;;
54705;SDS011;40603;48.774;8.916;2022-07-04T04:44:23;15.07;;;11.90;;
54705;SDS011;40603;48.774;8.916;2022-07-04T04:46:49;14.20;;;12.90;;
54705;SDS011;40603;48.774;8.916;2022-07-04T04:49:14;14.02;;;12.60;;
54705;SDS011;40603;48.774;8.916;2022-07-04T04:51:39;13.65;;;12.43;;
54705;SDS011;40603;48.774;8.916;2022-07-04T04:54:05;18.20;;;12.93;;
54705;SDS011;40603;48.774;8.916;2022-07-04T04:56:30;13.57;;;12.57;;
54705;SDS011;40603;48.774;8.916;2022-07-04T04:58:56;11.13;;;10.18;;
54705;SDS011;40603;48.774;8.916;2022-07-04T05:01:21;10.27;;;9.48;;
54705;SDS011;40603;48.774;8.916;2022-07-04T05:03:46;9.23;;;8.55;;
54705;SDS011;40603;48.774;8.916;2022-07-04T05:06:12;9.82;;;9.07;;
54705;SDS011;40603;48.774;8.916;2022-07-04T05:08:37;13.95;;;12.63;;
54705;SDS011;40603;48.774;8.916;2022-07-04T05:11:02;10.18;;;9.38;;
54705;SDS011;40603;48.774;8.916;2022-07-04T05:13:28;9.88;;;8.93;;
54705;SDS011;40603;48.774;8.916;2022-07-04T05:15:53;9.50;;;8.63;;
54705;SDS011;40603;48.774;8.916;2022-07-04T05:18:18;9.82;;;8.45;;
54705;SDS011;40603;48.774;8.916;2022-07-04T05:20:44;8.75;;;8.00;;
54705;SDS011;40603;48.774;8.916;2022-07-04T05:23:09;11.45;;;9.32;;
54705;SDS011;40603;48.774;8.916;2022-07-04T05:25:34;9.30;;;8.52;;
54705;SDS011;40603;48.774;8.916;2022-07-04T05:28:00;7.75;;;7.18;;
54705;SDS011;40603;48.774;8.916;2022-07-04T05:30:25;9.00;;;7.05;;
54705;SDS011;40603;48.774;8.916;2022-07-04T05:32:50;10.75;;;9.90;;
54705;SDS011;40603;48.774;8.916;2022-07-04T05:35:16;8.75;;;7.97;;
54705;SDS011;40603;48.774;8.916;2022-07-04T05:37:41;7.53;;;6.88;;
54705;SDS011;40603;48.774;8.916;2022-07-04T05:40:07;7.95;;;6.38;;
54705;SDS011;40603;48.774;8.916;2022-07-04T05:42:36;8.50;;;7.80;;
54705;SDS011;40603;48.774;8.916;2022-07-04T05:45:01;7.03;;;6.35;;
54705;SDS011;40603;48.774;8.916;2022-07-04T05:47:27;9.18;;;8.05;;
54705;SDS011;40603;48.774;8.916;2022-07-04T05:49:52;9.13;;;8.27;;
54705;SDS011;40603;48.774;8.916;2022-07-04T05:52:17;8.88;;;8.02;;
54705;SDS011;40603;48.774;8.916;2022-07-04T05:54:43;9.35;;;8.68;;
54705;SDS011;40603;48.774;8.916;2022-07-04T05:57:08;9.63;;;8.82;;
54705;SDS011;40603;48.774;8.916;2022-07-04T05:59:33;8.50;;;7.85;;
54705;SDS011;40603;48.774;8.916;2022-07-04T06:01:59;7.30;;;6.75;;
54705;SDS011;40603;48.774;8.916;2022-07-04T06:04:24;9.23;;;8.57;;
54705;SDS011;40603;48.774;8.916;2022-07-04T06:06:50;8.02;;;7.22;;
54705;SDS011;40603;48.774;8.916;2022-07-04T06:09:16;12.00;;;8.93;;
54705;SDS011;40603;48.774;8.916;2022-07-04T06:11:41;10.15;;;9.38;;
54705;SDS011;40603;48.774;8.916;2022-07-04T06:14:06;10.48;;;6.85;;
54705;SDS011;40603;48.774;8.916;2022-07-04T06:16:32;8.70;;;8.02;;
54705;SDS011;40603;48.774;8.916;2022-07-04T06:18:57;9.05;;;8.20;;
54705;SDS011;40603;48.774;8.916;2022-07-04T06:21:22;10.15;;;9.38;;
54705;SDS011;40603;48.774;8.916;2022-07-04T06:23:47;11.23;;;10.40;;
54705;SDS011;40603;48.774;8.916;2022-07-04T06:26:13;7.38;;;6.72;;
54705;SDS011;40603;48.774;8.916;2022-07-04T06:28:38;8.98;;;8.13;;
54705;SDS011;40603;48.774;8.916;2022-07-04T06:31:03;14.15;;;9.90;;
54705;SDS011;40603;48.774;8.916;2022-07-04T06:33:29;14.80;;;11.52;;
54705;SDS011;40603;48.774;8.916;2022-07-04T06:35:54;12.73;;;11.63;;
54705;SDS011;40603;48.774;8.916;2022-07-04T06:38:21;17.45;;;15.63;;
54705;SDS011;40603;48.774;8.916;2022-07-04T06:40:48;17.08;;;15.55;;
54705;SDS011;40603;48.774;8.916;2022-07-04T06:43:18;16.48;;;14.93;;
54705;SDS011;40603;48.774;8.916;2022-07-04T06:45:43;14.60;;;11.57;;
54705;SDS011;40603;48.774;8.916;2022-07-04T06:48:09;17.25;;;15.32;;
54705;SDS011;40603;48.774;8.916;2022-07-04T06:50:34;19.42;;;15.18;;
54705;SDS011;40603;48.774;8.916;2022-07-04T06:53:00;20.02;;;11.35;;
54705;SDS011;40603;48.774;8.916;2022-07-04T06:55:29;14.90;;;13.40;;
54705;SDS011;40603;48.774;8.916;2022-07-04T06:57:54;16.83;;;14.35;;
54705;SDS011;40603;48.774;8.916;2022-07-04T07:00:20;17.00;;;13.70;;
54705;SDS011;40603;48.774;8.916;2022-07-04T07:02:45;16.60;;;15.25;;
54705;SDS011;40603;48.774;8.916;2022-07-04T07:05:10;15.38;;;14.10;;
54705;SDS011;40603;48.774;8.916;2022-07-04T07:07:36;17.55;;;15.90;;
54705;SDS011;40603;48.774;8.916;2022-07-04T07:10:01;16.55;;;15.02;;
54705;SDS011;40603;48.774;8.916;2022-07-04T07:12:28;16.15;;;14.73;;
54705;SDS011;40603;48.774;8.916;2022-07-04T07:14:53;18.20;;;14.77;;
54705;SDS011;40603;48.774;8.916;2022-07-04T07:17:19;19.90;;;17.75;;
54705;SDS011;40603;48.774;8.916;2022-07-04T07:19:45;18.52;;;16.92;;
54705;SDS011;40603;48.774;8.916;2022-07-04T07:22:11;16.33;;;14.75;;
54705;SDS011;40603;48.774;8.916;2022-07-04T07:24:36;18.23;;;15.38;;
54705;SDS011;40603;48.774;8.916;2022-07-04T07:27:02;20.40;;;18.35;;
54705;SDS011;40603;48.774;8.916;2022-07-04T07:29:27;17.95;;;14.80;;
54705;SDS011;40603;48.774;8.916;2022-07-04T07:31:53;16.58;;;15.10;;
54705;SDS011;40603;48.774;8.916;2022-07-04T07:34:18;17.42;;;15.45;;
54705;SDS011;40603;48.774;8.916;2022-07-04T07:36:44;17.70;;;15.65;;
54705;SDS011;40603;48.774;8.916;2022-07-04T07:39:09;13.13;;;12.02;;
54705;SDS011;40603;48.774;8.916;2022-07-04T07:41:34;18.70;;;14.55;;
54705;SDS011;40603;48.774;8.916;2022-07-04T07:44:00;15.32;;;13.73;;
54705;SDS011;40603;48.774;8.916;2022-07-04T07:46:25;15.25;;;13.40;;
54705;SDS011;40603;48.774;8.916;2022-07-04T07:48:50;13.48;;;12.15;;
54705;SDS011;40603;48.774;8.916;2022-07-04T07:51:15;14.43;;;13.13;;
54705;SDS011;40603;48.774;8.916;2022-07-04T07:53:41;12.52;;;11.45;;
54705;SDS011;40603;48.774;8.916;2022-07-04T07:56:07;12.88;;;7.20;;
54705;SDS011;40603;48.774;8.916;2022-07-04T07:58:32;6.57;;;6.00;;
54705;SDS011;40603;48.774;8.916;2022-07-04T08:00:57;14.88;;;9.23;;
54705;SDS011;40603;48.774;8.916;2022-07-04T08:03:23;16.50;;;14.75;;
54705;SDS011;40603;48.774;8.916;2022-07-04T08:06:07;29.70;;;25.33;;
54705;SDS011;40603;48.774;8.916;2022-07-04T08:08:33;27.48;;;23.33;;
54705;SDS011;40603;48.774;8.916;2022-07-04T08:10:58;38.15;;;24.40;;
54705;SDS011;40603;48.774;8.916;2022-07-04T08:13:24;35.90;;;25.95;;
54705;SDS011;40603;48.774;8.916;2022-07-04T08:15:49;39.40;;;24.20;;
54705;SDS011;40603;48.774;8.916;2022-07-04T08:18:14;40.08;;;25.52;;
54705;SDS011;40603;48.774;8.916;2022-07-04T08:20:41;40.83;;;28.35;;
54705;SDS011;40603;48.774;8.916;2022-07-04T08:23:06;32.92;;;23.95;;
54705;SDS011;40603;48.774;8.916;2022-07-04T08:25:32;39.75;;;29.40;;
54705;SDS011;40603;48.774;8.916;2022-07-04T08:27:57;35.92;;;27.20;;
54705;SDS011;40603;48.774;8.916;2022-07-04T08:30:22;34.83;;;25.95;;
54705;SDS011;40603;48.774;8.916;2022-07-04T08:32:48;32.20;;;27.30;;
54705;SDS011;40603;48.774;8.916;2022-07-04T08:35:13;33.88;;;29.42;;
54705;SDS011;40603;48.774;8.916;2022-07-04T08:37:39;38.88;;;30.88;;
54705;SDS011;40603;48.774;8.916;2022-07-04T08:40:06;31.88;;;28.17;;
54705;SDS011;40603;48.774;8.916;2022-07-04T08:42:35;34.45;;;26.63;;
54705;SDS011;40603;48.774;8.916;2022-07-04T08:45:04;36.03;;;25.10;;
54705;SDS011;40603;48.774;8.916;2022-07-04T08:47:32;32.38;;;25.55;;
54705;SDS011;40603;48.774;8.916;2022-07-04T08:50:03;30.30;;;23.58;;
54705;SDS011;40603;48.774;8.916;2022-07-04T08:52:36;28.55;;;25.38;;
54705;SDS011;40603;48.774;8.916;2022-07-04T08:55:06;26.90;;;24.20;;
54705;SDS011;40603;48.774;8.916;2022-07-04T08:57:52;34.80;;;27.17;;
54705;SDS011;40603;48.774;8.916;2022-07-04T09:00:37;26.05;;;23.40;;
54705;SDS011;40603;48.774;8.916;2022-07-04T09:03:03;35.30;;;28.73;;
54705;SDS011;40603;48.774;8.916;2022-07-04T09:05:29;33.20;;;25.10;;
54705;SDS011;40603;48.774;8.916;2022-07-04T09:07:57;27.27;;;21.77;;
54705;SDS011;40603;48.774;8.916;2022-07-04T09:10:22;27.65;;;24.63;;
54705;SDS011;40603;48.774;8.916;2022-07-04T09:12:48;25.92;;;21.33;;
54705;SDS011;40603;48.774;8.916;2022-07-04T09:15:14;26.85;;;20.20;;
54705;SDS011;40603;48.774;8.916;2022-07-04T09:17:40;33.92;;;26.58;;
54705;SDS011;40603;48.774;8.916;2022-07-04T09:22:44;31.10;;;22.13;;
54705;SDS011;40603;48.774;8.916;2022-07-04T09:25:10;25.00;;;21.65;;
54705;SDS011;40603;48.774;8.916;2022-07-04T09:27:40;32.55;;;29.02;;
54705;SDS011;40603;48.774;8.916;2022-07-04T09:30:10;32.78;;;24.63;;
54705;SDS011;40603;48.774;8.916;2022-07-04T09:32:37;37.13;;;28.73;;
54705;SDS011;40603;48.774;8.916;2022-07-04T09:35:09;31.77;;;25.92;;
54705;SDS011;40603;48.774;8.916;2022-07-04T09:37:37;35.13;;;30.85;;
54705;SDS011;40603;48.774;8.916;2022-07-04T09:40:08;39.22;;;33.00;;
54705;SDS011;40603;48.774;8.916;2022-07-04T09:42:35;39.22;;;35.28;;
54705;SDS011;40603;48.774;8.916;2022-07-04T09:45:06;41.85;;;37.50;;
54705;SDS011;40603;48.774;8.916;2022-07-04T09:50:01;33.23;;;30.03;;
54705;SDS011;40603;48.774;8.916;2022-07-04T09:52:50;36.25;;;31.13;;
54705;SDS011;40603;48.774;8.916;2022-07-04T09:55:26;35.40;;;31.88;;
54705;SDS011;40603;48.774;8.916;2022-07-04T09:57:59;35.33;;;31.80;;
54705;SDS011;40603;48.774;8.916;2022-07-04T10:00:30;35.85;;;32.35;;
54705;SDS011;40603;48.774;8.916;2022-07-04T10:03:15;36.58;;;32.90;;
54705;SDS011;40603;48.774;8.916;2022-07-04T10:06:04;43.00;;;38.78;;
54705;SDS011;40603;48.774;8.916;2022-07-04T10:08:30;43.70;;;39.25;;
54705;SDS011;40603;48.774;8.916;2022-07-04T10:10:57;41.40;;;37.30;;
54705;SDS011;40603;48.774;8.916;2022-07-04T10:13:23;44.40;;;40.10;;
54705;SDS011;40603;48.774;8.916;2022-07-04T10:15:48;42.53;;;38.45;;
54705;SDS011;40603;48.774;8.916;2022-07-04T10:18:14;45.85;;;41.25;;
54705;SDS011;40603;48.774;8.916;2022-07-04T10:20:43;40.78;;;36.95;;
54705;SDS011;40603;48.774;8.916;2022-07-04T10:23:08;37.03;;;33.53;;
54705;SDS011;40603;48.774;8.916;2022-07-04T10:25:34;43.92;;;39.45;;
54705;SDS011;40603;48.774;8.916;2022-07-04T10:27:59;44.50;;;40.83;;
54705;SDS011;40603;48.774;8.916;2022-07-04T10:30:26;50.22;;;45.63;;
54705;SDS011;40603;48.774;8.916;2022-07-04T10:32:54;49.35;;;43.35;;
54705;SDS011;40603;48.774;8.916;2022-07-04T10:38:13;115.53;;;104.38;;
54705;SDS011;40603;48.774;8.916;2022-07-04T10:41:12;76.47;;;68.45;;
54705;SDS011;40603;48.774;8.916;2022-07-04T10:48:27;89.07;;;79.55;;
54705;SDS011;40603;48.774;8.916;2022-07-04T10:51:02;86.47;;;77.05;;
54705;SDS011;40603;48.774;8.916;2022-07-04T10:53:29;66.35;;;56.08;;
54705;SDS011;40603;48.774;8.916;2022-07-04T10:56:03;64.45;;;58.28;;
54705;SDS011;40603;48.774;8.916;2022-07-04T10:58:41;64.32;;;57.83;;
54705;SDS011;40603;48.774;8.916;2022-07-04T11:01:14;75.30;;;67.78;;
54705;SDS011;40603;48.774;8.916;2022-07-04T11:03:50;75.35;;;56.67;;
54705;SDS011;40603;48.774;8.916;2022-07-04T11:14:30;62.25;;;54.67;;
54705;SDS011;40603;48.774;8.916;2022-07-04T11:17:03;79.55;;;61.70;;
54705;SDS011;40603;48.774;8.916;2022-07-04T11:19:29;77.82;;;63.13;;
54705;SDS011;40603;48.774;8.916;2022-07-04T11:21:54;120.15;;;102.57;;
54705;SDS011;40603;48.774;8.916;2022-07-04T11:24:20;141.13;;;125.72;;
54705;SDS011;40603;48.774;8.916;2022-07-04T11:26:46;81.80;;;68.80;;
54705;SDS011;40603;48.774;8.916;2022-07-04T11:29:12;108.63;;;97.35;;
54705;SDS011;40603;48.774;8.916;2022-07-04T11:31:39;134.85;;;118.15;;
54705;SDS011;40603;48.774;8.916;2022-07-04T11:34:05;96.10;;;86.28;;
54705;SDS011;40603;48.774;8.916;2022-07-04T11:36:31;89.38;;;78.65;;
54705;SDS011;40603;48.774;8.916;2022-07-04T11:38:57;83.25;;;72.53;;
54705;SDS011;40603;48.774;8.916;2022-07-04T11:44:17;89.22;;;79.35;;
54705;SDS011;40603;48.774;8.916;2022-07-04T11:47:04;97.10;;;87.50;;
54705;SDS011;40603;48.774;8.916;2022-07-04T11:49:34;68.70;;;57.50;;
54705;SDS011;40603;48.774;8.916;2022-07-04T11:52:00;52.72;;;46.10;;
54705;SDS011;40603;48.774;8.916;2022-07-04T11:54:25;59.00;;;42.65;;
54705;SDS011;40603;48.774;8.916;2022-07-04T11:56:51;58.03;;;41.55;;
54705;SDS011;40603;48.774;8.916;2022-07-04T11:59:16;63.15;;;45.33;;
54705;SDS011;40603;48.774;8.916;2022-07-04T12:01:42;72.38;;;62.50;;
54705;SDS011;40603;48.774;8.916;2022-07-04T12:04:18;71.38;;;63.85;;
54705;SDS011;40603;48.774;8.916;2022-07-04T12:06:45;69.00;;;59.47;;
54705;SDS011;40603;48.774;8.916;2022-07-04T12:09:12;86.85;;;75.90;;
54705;SDS011;40603;48.774;8.916;2022-07-04T12:14:18;88.10;;;78.43;;
54705;SDS011;40603;48.774;8.916;2022-07-04T12:16:44;85.28;;;76.50;;
54705;SDS011;40603;48.774;8.916;2022-07-04T12:19:09;78.07;;;69.90;;
54705;SDS011;40603;48.774;8.916;2022-07-04T12:21:35;101.07;;;90.18;;
54705;SDS011;40603;48.774;8.916;2022-07-04T12:24:01;88.90;;;78.55;;
54705;SDS011;40603;48.774;8.916;2022-07-04T12:26:28;72.65;;;54.63;;
54705;SDS011;40603;48.774;8.916;2022-07-04T12:28:55;69.53;;;57.72;;
54705;SDS011;40603;48.774;8.916;2022-07-04T12:31:32;75.10;;;59.75;;
54705;SDS011;40603;48.774;8.916;2022-07-04T12:34:02;83.32;;;70.75;;
54705;SDS011;40603;48.774;8.916;2022-07-04T12:36:28;87.25;;;71.30;;
54705;SDS011;40603;48.774;8.916;2022-07-04T12:38:53;62.15;;;55.70;;
54705;SDS011;40603;48.774;8.916;2022-07-04T12:41:28;96.50;;;72.38;;
54705;SDS011;40603;48.774;8.916;2022-07-04T12:43:54;75.18;;;66.93;;
54705;SDS011;40603;48.774;8.916;2022-07-04T12:46:29;77.10;;;64.20;;
54705;SDS011;40603;48.774;8.916;2022-07-04T12:48:57;98.05;;;87.57;;
54705;SDS011;40603;48.774;8.916;2022-07-04T12:53:56;104.15;;;93.10;;
54705;SDS011;40603;48.774;8.916;2022-07-04T12:56:35;116.47;;;103.68;;
54705;SDS011;40603;48.774;8.916;2022-07-04T12:59:03;113.95;;;99.78;;
54705;SDS011;40603;48.774;8.916;2022-07-04T13:01:30;101.57;;;90.32;;
54705;SDS011;40603;48.774;8.916;2022-07-04T13:03:55;90.68;;;80.95;;
54705;SDS011;40603;48.774;8.916;2022-07-04T13:06:21;102.18;;;91.57;;
54705;SDS011;40603;48.774;8.916;2022-07-04T13:08:46;94.03;;;84.28;;
54705;SDS011;40603;48.774;8.916;2022-07-04T13:11:12;81.15;;;72.70;;
54705;SDS011;40603;48.774;8.916;2022-07-04T13:13:56;84.03;;;74.95;;
54705;SDS011;40603;48.774;8.916;2022-07-04T13:16:21;92.53;;;77.28;;
54705;SDS011;40603;48.774;8.916;2022-07-04T13:18:46;86.95;;;77.75;;
54705;SDS011;40603;48.774;8.916;2022-07-04T13:21:12;86.57;;;76.53;;
54705;SDS011;40603;48.774;8.916;2022-07-04T13:23:37;102.65;;;92.18;;
54705;SDS011;40603;48.774;8.916;2022-07-04T13:26:03;85.32;;;76.75;;
54705;SDS011;40603;48.774;8.916;2022-07-04T13:28:28;115.10;;;102.35;;
54705;SDS011;40603;48.774;8.916;2022-07-04T13:30:53;104.95;;;94.07;;
54705;SDS011;40603;48.774;8.916;2022-07-04T13:33:19;96.07;;;86.03;;
54705;SDS011;40603;48.774;8.916;2022-07-04T13:35:44;94.85;;;83.78;;
54705;SDS011;40603;48.774;8.916;2022-07-04T13:38:09;96.80;;;80.28;;
54705;SDS011;40603;48.774;8.916;2022-07-04T13:40:35;106.55;;;95.68;;
54705;SDS011;40603;48.774;8.916;2022-07-04T13:43:00;98.20;;;87.97;;
54705;SDS011;40603;48.774;8.916;2022-07-04T13:45:26;97.57;;;88.20;;
54705;SDS011;40603;48.774;8.916;2022-07-04T13:47:52;90.05;;;80.95;;
54705;SDS011;40603;48.774;8.916;2022-07-04T13:50:17;129.75;;;117.25;;
54705;SDS011;40603;48.774;8.916;2022-07-04T13:52:43;104.38;;;93.53;;
54705;SDS011;40603;48.774;8.916;2022-07-04T13:55:09;89.35;;;77.28;;
54705;SDS011;40603;48.774;8.916;2022-07-04T13:57:35;103.10;;;92.00;;
54705;SDS011;40603;48.774;8.916;2022-07-04T14:00:01;78.78;;;70.65;;
54705;SDS011;40603;48.774;8.916;2022-07-04T14:02:26;86.07;;;76.88;;
54705;SDS011;40603;48.774;8.916;2022-07-04T14:04:51;87.78;;;78.57;;
54705;SDS011;40603;48.774;8.916;2022-07-04T14:07:17;119.63;;;108.35;;
54705;SDS011;40603;48.774;8.916;2022-07-04T14:09:42;87.50;;;77.90;;
54705;SDS011;40603;48.774;8.916;2022-07-04T14:12:07;83.47;;;74.70;;
54705;SDS011;40603;48.774;8.916;2022-07-04T14:14:33;83.43;;;74.38;;
54705;SDS011;40603;48.774;8.916;2022-07-04T14:16:59;87.47;;;70.88;;
54705;SDS011;40603;48.774;8.916;2022-07-04T14:19:24;71.90;;;64.03;;
54705;SDS011;40603;48.774;8.916;2022-07-04T14:21:49;66.70;;;59.53;;
54705;SDS011;40603;48.774;8.916;2022-07-04T14:24:16;70.25;;;63.10;;
54705;SDS011;40603;48.774;8.916;2022-07-04T14:26:42;85.68;;;76.90;;
54705;SDS011;40603;48.774;8.916;2022-07-04T14:29:07;83.75;;;71.68;;
54705;SDS011;40603;48.774;8.916;2022-07-04T14:31:33;77.35;;;69.32;;
54705;SDS011;40603;48.774;8.916;2022-07-04T14:33:58;80.30;;;72.00;;
54705;SDS011;40603;48.774;8.916;2022-07-04T14:36:23;74.05;;;66.28;;
54705;SDS011;40603;48.774;8.916;2022-07-04T14:38:48;78.78;;;70.15;;
54705;SDS011;40603;48.774;8.916;2022-07-04T14:41:14;80.60;;;72.15;;
54705;SDS011;40603;48.774;8.916;2022-07-04T14:43:40;84.63;;;69.78;;
54705;SDS011;40603;48.774;8.916;2022-07-04T14:46:06;87.70;;;78.93;;
54705;SDS011;40603;48.774;8.916;2022-07-04T14:48:32;79.10;;;69.47;;
54705;SDS011;40603;48.774;8.916;2022-07-04T14:50:57;84.35;;;75.38;;
54705;SDS011;40603;48.774;8.916;2022-07-04T14:53:23;95.07;;;85.38;;
54705;SDS011;40603;48.774;8.916;2022-07-04T14:55:49;91.20;;;82.13;;
54705;SDS011;40603;48.774;8.916;2022-07-04T14:58:14;90.28;;;79.97;;